デリー の空港の天気 - METARとTAF

インディラ・ガンディー国際空港 ( VIDP / DEL ) - インド デリー
飛行場実況気象(Metar)
観測時間01/18 15:00 IST (01/18 09:30 UTC)
風向・風速西北西 3m/s
視程2200m
天気現象
なし
気温25℃
湿度36%
気圧1014hPa
METARVIDP 180930Z 30006KT 2200 FU NSC 25/09 Q1014 NOSIG
過去の天気等 Google飛行場航空写真 Wunderground天気予報

過去48時間のMETAR

飛行場予報(TAF)
発表時間: 1/18 10:31 IST (1/18 05:01 UTC)
予報対象時間: 18日11時 IST ~ 19日17時 IST
風向・風速不定 1m/s
視程1,000m
天気現象
なし
18日14時 IST ~ 18日16時 IST に徐々に
風向・風速西 3m/s
視程2,500m
天気現象煙霧
18日23時 IST ~ 19日1時 IST に徐々に
風向・風速不定 1m/s
視程800m
天気現象地霧
19日4時 IST ~ 19日5時 IST に徐々に
視程200m
天気現象
19日9時 IST ~ 19日10時 IST に徐々に
視程800m
天気現象地霧
なし
19日11時 IST ~ 19日13時 IST に徐々に
風向・風速西北西 4m/s
視程2,500m
天気現象煙霧
TAF VIDP 180501Z 1806/1912 VRB02KT 1000 FU NSC
BECMG 1809/1811 28005KT 2500 HZ
BECMG 1818/1820 VRB02KT 0800 MIFG
BECMG 1823/1824 0200 FG VV///
BECMG 1904/1905 0800 MIFG NSC
BECMG 1906/1908 29008KT 2500 HZ